Time;durP1;ratioP1;P1;durP2;ratioP2;P2;SDS_P1;SDS_P2;PMS_P1;PMS_P2;Temp;Humidity;BMP_temperature;BMP_pressure;BME280_temperature;BME280_humidity;BME280_pressure;Samples;Min_cycle;Max_cycle;Signal;HPM_P1;HPM_P2
2022/12/31 17:09:35;;;;;;;;;;;18.10;65.90;;;;;;5104403;27;44597;-76
2022/12/31 17:12:13;;;;;;;;;;;18.00;66.00;;;;;;5096762;27;43306;-78
2022/12/31 17:14:49;;;;;;;;;;;18.10;66.10;;;;;;5091157;27;43284;-77
2022/12/31 17:17:21;;;;;;;;;;;18.00;66.30;;;;;;5096808;27;43297;-76
2022/12/31 17:19:49;;;;;;;;;;;17.60;65.60;;;;;;5087892;27;43185;-76
2022/12/31 17:22:23;;;;;;;;;;;18.00;66.20;;;;;;5094031;27;43166;-82
2022/12/31 17:25:00;;;;;;;;;;;18.00;67.20;;;;;;5084984;27;43078;-79
2022/12/31 17:27:26;;;;;;;;;;;18.00;67.30;;;;;;5095180;27;43016;-79
2022/12/31 17:29:51;;;;;;;;;;;18.00;68.50;;;;;;5089986;27;43079;-74
2022/12/31 17:32:27;;;;;;;;;;;18.00;70.10;;;;;;5101167;27;43023;-75
2022/12/31 17:34:53;;;;;;;;;;;18.00;69.90;;;;;;5098218;27;43084;-76
2022/12/31 17:37:28;;;;;;;;;;;18.00;69.30;;;;;;5094530;27;43145;-77
2022/12/31 17:40:00;;;;;;;;;;;18.00;69.10;;;;;;5091837;27;42996;-77
2022/12/31 17:42:30;;;;;;;;;;;18.00;69.30;;;;;;5079989;27;42986;-76
2022/12/31 17:45:22;;;;;;;;;;;18.00;69.20;;;;;;5094263;27;43041;-78
2022/12/31 17:47:49;;;;;;;;;;;18.00;69.20;;;;;;5094864;27;44152;-76
2022/12/31 17:50:22;;;;;;;;;;;18.00;69.20;;;;;;5100380;27;43032;-76
2022/12/31 17:52:48;;;;;;;;;;;18.00;69.20;;;;;;5087274;27;43048;-78
2022/12/31 17:55:14;;;;;;;;;;;18.00;69.20;;;;;;5089949;27;43070;-77
2022/12/31 17:57:43;;;;;;;;;;;18.00;69.10;;;;;;5081031;27;42967;-79
2022/12/31 18:00:14;;;;;;;;;;;18.00;70.80;;;;;;5081317;27;43149;-84
2022/12/31 18:02:40;;;;;;;;;;;18.00;72.40;;;;;;5091982;27;43601;-79
2022/12/31 18:05:13;;;;;;;;;;;18.00;73.30;;;;;;5092167;27;43093;-80
2022/12/31 18:07:39;;;;;;;;;;;18.00;73.40;;;;;;5097038;27;43069;-80
2022/12/31 18:10:04;;;;;;;;;;;18.00;73.70;;;;;;5100374;27;43075;-77
2022/12/31 18:12:31;;;;;;;;;;;18.00;73.90;;;;;;5065247;27;43770;-80
2022/12/31 18:14:56;;;;;;;;;;;18.00;74.40;;;;;;5081398;27;43007;-86
2022/12/31 18:17:22;;;;;;;;;;;18.00;73.80;;;;;;5090085;27;43749;-77
2022/12/31 18:19:47;;;;;;;;;;;18.00;73.90;;;;;;5075525;27;44092;-79
2022/12/31 18:22:14;;;;;;;;;;;18.00;73.80;;;;;;5064200;28;44543;-76
2022/12/31 18:24:40;;;;;;;;;;;18.10;73.90;;;;;;5077448;28;42914;-80
2022/12/31 18:27:24;;;;;;;;;;;18.00;73.70;;;;;;5083862;28;43017;-80
2022/12/31 18:29:49;;;;;;;;;;;18.00;73.60;;;;;;5078780;28;43400;-80
2022/12/31 18:32:18;;;;;;;;;;;18.00;73.50;;;;;;5085576;28;43037;-79
2022/12/31 18:34:43;;;;;;;;;;;18.00;73.30;;;;;;5086155;28;43124;-76
2022/12/31 18:37:11;;;;;;;;;;;18.00;73.20;;;;;;5084730;27;43075;-79
2022/12/31 18:39:36;;;;;;;;;;;18.00;73.10;;;;;;5086021;28;42985;-80
2022/12/31 18:42:02;;;;;;;;;;;18.00;73.00;;;;;;5085702;27;43363;-79
2022/12/31 18:44:27;;;;;;;;;;;18.00;73.00;;;;;;5078948;28;43400;-79
2022/12/31 18:46:53;;;;;;;;;;;18.00;73.00;;;;;;5074418;27;42907;-75
2022/12/31 18:49:18;;;;;;;;;;;18.00;72.90;;;;;;5086384;28;42997;-80
2022/12/31 18:51:44;;;;;;;;;;;18.00;72.90;;;;;;5074439;28;43715;-80
2022/12/31 18:54:10;;;;;;;;;;;18.00;72.80;;;;;;5083235;28;43984;-81
2022/12/31 18:56:35;;;;;;;;;;;18.00;72.70;;;;;;5076740;28;42910;-81
2022/12/31 18:59:01;;;;;;;;;;;18.00;72.50;;;;;;5078000;28;43051;-81
2022/12/31 19:01:28;;;;;;;;;;;18.00;72.40;;;;;;5058544;28;43569;-81
2022/12/31 19:03:58;;;;;;;;;;;18.00;72.70;;;;;;5071703;28;43036;-75
2022/12/31 19:06:24;;;;;;;;;;;18.00;72.40;;;;;;5074618;28;44715;-76
2022/12/31 19:08:50;;;;;;;;;;;18.00;72.40;;;;;;5080037;28;43033;-75
2022/12/31 19:11:15;;;;;;;;;;;18.00;72.30;;;;;;5084676;28;43118;-76
2022/12/31 19:13:41;;;;;;;;;;;18.00;72.20;;;;;;5081468;28;42950;-76
2022/12/31 19:16:07;;;;;;;;;;;18.00;72.10;;;;;;5085123;28;42969;-75
2022/12/31 19:18:33;;;;;;;;;;;18.00;72.00;;;;;;5072997;28;43118;-76
2022/12/31 19:20:58;;;;;;;;;;;18.00;72.00;;;;;;5083244;28;43889;-76
2022/12/31 19:23:24;;;;;;;;;;;18.00;71.90;;;;;;5084472;28;42961;-75
2022/12/31 19:25:49;;;;;;;;;;;18.00;71.80;;;;;;5079762;28;43491;-75
2022/12/31 19:28:20;;;;;;;;;;;18.00;71.80;;;;;;5085697;27;43042;-76
2022/12/31 19:30:45;;;;;;;;;;;18.00;71.60;;;;;;5071170;28;42817;-75
2022/12/31 19:33:11;;;;;;;;;;;18.00;71.50;;;;;;5074109;28;42998;-75
2022/12/31 19:35:37;;;;;;;;;;;18.00;71.50;;;;;;5083566;28;43555;-75
2022/12/31 19:38:04;;;;;;;;;;;18.00;71.40;;;;;;5076972;28;42953;-75
2022/12/31 19:40:30;;;;;;;;;;;18.00;71.20;;;;;;5072268;28;43259;-76
2022/12/31 19:42:56;;;;;;;;;;;18.00;71.10;;;;;;5077559;28;42977;-77
2022/12/31 19:45:26;;;;;;;;;;;18.00;70.80;;;;;;5080296;28;43736;-76
2022/12/31 19:47:52;;;;;;;;;;;18.00;71.20;;;;;;5076928;27;43005;-76
2022/12/31 19:50:19;;;;;;;;;;;18.00;71.00;;;;;;5072320;28;43788;-76
2022/12/31 19:52:46;;;;;;;;;;;18.00;70.90;;;;;;5098029;27;43029;-75
2022/12/31 19:55:13;;;;;;;;;;;18.00;70.80;;;;;;5085461;28;43552;-76
2022/12/31 19:57:39;;;;;;;;;;;18.00;70.50;;;;;;5079909;28;43357;-76
2022/12/31 20:00:05;;;;;;;;;;;18.00;70.50;;;;;;5069140;28;44325;-76
2022/12/31 20:02:30;;;;;;;;;;;18.00;70.40;;;;;;5067485;28;42882;-76
2022/12/31 20:04:56;;;;;;;;;;;18.00;70.30;;;;;;5085419;28;43970;-76
2022/12/31 20:07:24;;;;;;;;;;;18.00;70.20;;;;;;5084958;28;42860;-75
2022/12/31 20:09:49;;;;;;;;;;;18.00;70.10;;;;;;5085299;27;43667;-76
2022/12/31 20:12:15;;;;;;;;;;;18.00;69.90;;;;;;5084874;28;42867;-75
2022/12/31 20:14:41;;;;;;;;;;;18.00;69.80;;;;;;5084632;28;43409;-76
2022/12/31 20:17:06;;;;;;;;;;;18.00;69.60;;;;;;5083397;28;43004;-75
2022/12/31 20:19:32;;;;;;;;;;;18.00;69.60;;;;;;5073437;27;42901;-75
2022/12/31 20:21:58;;;;;;;;;;;18.00;69.60;;;;;;5085109;28;43047;-78
2022/12/31 20:24:23;;;;;;;;;;;18.00;69.50;;;;;;5084436;28;43013;-80
2022/12/31 20:26:49;;;;;;;;;;;18.00;69.50;;;;;;5085108;28;42973;-77
2022/12/31 20:29:14;;;;;;;;;;;18.00;69.40;;;;;;5084333;28;43072;-79
2022/12/31 20:31:40;;;;;;;;;;;18.00;69.30;;;;;;5084345;28;43008;-78
2022/12/31 20:34:05;;;;;;;;;;;18.00;69.20;;;;;;5085175;28;42909;-77
2022/12/31 20:36:31;;;;;;;;;;;18.00;69.10;;;;;;5085290;28;42919;-78
2022/12/31 20:38:57;;;;;;;;;;;18.00;69.10;;;;;;5085436;28;43360;-76
2022/12/31 20:41:22;;;;;;;;;;;18.00;69.00;;;;;;5084218;28;42914;-76
2022/12/31 20:43:48;;;;;;;;;;;18.00;68.90;;;;;;5084250;28;43314;-77
2022/12/31 20:46:19;;;;;;;;;;;18.00;68.90;;;;;;5085304;28;42949;-77
2022/12/31 20:48:45;;;;;;;;;;;18.00;68.90;;;;;;5084533;28;43026;-78
2022/12/31 20:51:11;;;;;;;;;;;18.00;68.80;;;;;;5085655;27;43033;-79
2022/12/31 20:53:37;;;;;;;;;;;18.00;68.60;;;;;;5095973;27;42781;-77
2022/12/31 20:56:03;;;;;;;;;;;18.10;68.50;;;;;;5085110;28;42831;-77
2022/12/31 20:58:28;;;;;;;;;;;18.00;68.50;;;;;;5085086;28;43528;-78
2022/12/31 21:00:54;;;;;;;;;;;18.00;68.50;;;;;;5084175;28;42856;-76
2022/12/31 21:03:19;;;;;;;;;;;18.00;68.50;;;;;;5085179;28;43013;-78
2022/12/31 21:05:54;;;;;;;;;;;18.00;68.40;;;;;;5087585;27;42978;-77
2022/12/31 21:08:20;;;;;;;;;;;18.00;68.30;;;;;;5100305;27;42886;-76
2022/12/31 21:10:49;;;;;;;;;;;18.10;68.30;;;;;;5101494;27;42888;-75
2022/12/31 21:13:17;;;;;;;;;;;18.00;68.10;;;;;;5084572;28;43151;-75
2022/12/31 21:15:46;;;;;;;;;;;18.10;68.20;;;;;;5083645;28;43097;-75
2022/12/31 21:18:11;;;;;;;;;;;18.10;68.10;;;;;;5083770;28;42962;-76
2022/12/31 21:20:37;;;;;;;;;;;18.10;68.00;;;;;;5097553;27;43136;-76
2022/12/31 21:23:02;;;;;;;;;;;18.10;67.90;;;;;;5084824;28;43381;-75
2022/12/31 21:25:28;;;;;;;;;;;18.10;67.80;;;;;;5084362;28;42923;-77
2022/12/31 21:27:53;;;;;;;;;;;18.10;67.70;;;;;;5077917;27;43198;-77
2022/12/31 21:30:19;;;;;;;;;;;18.10;67.70;;;;;;5085501;27;42913;-78
2022/12/31 21:32:44;;;;;;;;;;;18.10;67.70;;;;;;5095814;27;42858;-79
2022/12/31 21:35:10;;;;;;;;;;;18.10;67.60;;;;;;5085704;27;42893;-79
2022/12/31 21:37:36;;;;;;;;;;;18.10;67.60;;;;;;5083124;28;42936;-79
2022/12/31 21:40:02;;;;;;;;;;;18.10;67.60;;;;;;5084447;28;42876;-79
2022/12/31 21:42:27;;;;;;;;;;;18.10;68.10;;;;;;5084306;28;42934;-79
2022/12/31 21:44:53;;;;;;;;;;;18.10;67.50;;;;;;5083712;28;43064;-76
2022/12/31 21:50:02;;;;;;;;;;;18.10;67.30;;;;;;5071274;28;43072;-78
2022/12/31 21:52:33;;;;;;;;;;;18.10;67.20;;;;;;5096446;27;42937;-79
2022/12/31 21:57:45;;;;;;;;;;;18.20;66.90;;;;;;5087709;28;43246;-77
2022/12/31 22:06:00;;;;;;;;;;;18.30;66.20;;;;;;5087546;28;42965;-79
2022/12/31 22:08:27;;;;;;;;;;;18.30;66.20;;;;;;5068748;28;44801;-79
2022/12/31 22:10:53;;;;;;;;;;;18.30;66.80;;;;;;5087188;28;42933;-78
2022/12/31 22:13:19;;;;;;;;;;;18.30;66.40;;;;;;5068691;28;45021;-81
2022/12/31 22:15:45;;;;;;;;;;;18.20;66.40;;;;;;5087184;28;42903;-79
2022/12/31 22:18:14;;;;;;;;;;;18.20;66.50;;;;;;5087488;28;43472;-79
2022/12/31 22:20:40;;;;;;;;;;;18.10;66.50;;;;;;5082322;28;42785;-78
2022/12/31 22:23:05;;;;;;;;;;;18.20;66.60;;;;;;5068385;27;42753;-79
2022/12/31 22:25:32;;;;;;;;;;;18.10;66.60;;;;;;5067656;27;42887;-79
2022/12/31 22:27:57;;;;;;;;;;;18.10;66.60;;;;;;5067953;27;43005;-78
2022/12/31 22:30:23;;;;;;;;;;;18.10;66.60;;;;;;5085446;28;43000;-77
2022/12/31 22:32:48;;;;;;;;;;;18.10;66.50;;;;;;5087124;28;43000;-78
2022/12/31 22:35:14;;;;;;;;;;;18.10;66.50;;;;;;5087199;28;42973;-80
2022/12/31 22:37:39;;;;;;;;;;;18.10;66.50;;;;;;5086895;28;43801;-77
2022/12/31 22:40:05;;;;;;;;;;;18.10;66.40;;;;;;5086832;28;42924;-79
2022/12/31 22:42:31;;;;;;;;;;;18.10;66.40;;;;;;5086734;28;43728;-79
2022/12/31 22:44:56;;;;;;;;;;;18.10;66.30;;;;;;5086970;28;42864;-79
2022/12/31 22:47:22;;;;;;;;;;;18.20;66.20;;;;;;5086583;28;42950;-79
2022/12/31 22:49:47;;;;;;;;;;;18.30;65.60;;;;;;5083803;27;42952;-78
2022/12/31 22:52:12;;;;;;;;;;;18.40;65.60;;;;;;5088267;27;43401;-78
2022/12/31 22:54:38;;;;;;;;;;;18.40;65.40;;;;;;5105805;27;43088;-78
2022/12/31 22:57:03;;;;;;;;;;;18.40;65.30;;;;;;5096533;27;43743;-79
2022/12/31 22:59:29;;;;;;;;;;;18.40;65.20;;;;;;5086195;28;43028;-78
2022/12/31 23:01:54;;;;;;;;;;;18.40;65.20;;;;;;5086601;28;44016;-79
2022/12/31 23:04:20;;;;;;;;;;;18.30;65.40;;;;;;5086299;28;42966;-78
2022/12/31 23:06:45;;;;;;;;;;;18.40;65.30;;;;;;5086171;27;43115;-78
2022/12/31 23:11:56;;;;;;;;;;;18.30;65.30;;;;;;5086569;28;43081;-79
2022/12/31 23:25:19;;;;;;;;;;;18.20;65.20;;;;;;5086798;28;43000;-77
2022/12/31 23:27:44;;;;;;;;;;;18.20;65.20;;;;;;5086492;28;42984;-79
2022/12/31 23:30:10;;;;;;;;;;;18.20;65.60;;;;;;5084783;27;43155;-79
2022/12/31 23:32:35;;;;;;;;;;;18.20;65.30;;;;;;5089243;28;43022;-76
2022/12/31 23:35:01;;;;;;;;;;;18.20;65.40;;;;;;5088258;28;43026;-80
2022/12/31 23:37:27;;;;;;;;;;;18.20;65.50;;;;;;5085902;28;43122;-77
2022/12/31 23:39:52;;;;;;;;;;;18.20;65.30;;;;;;5085605;28;43060;-78
2022/12/31 23:42:18;;;;;;;;;;;18.20;65.20;;;;;;5086215;28;43843;-75
2022/12/31 23:44:43;;;;;;;;;;;18.20;65.30;;;;;;5086012;28;43075;-77
2022/12/31 23:47:09;;;;;;;;;;;18.10;65.20;;;;;;5086040;28;42853;-80
2022/12/31 23:49:34;;;;;;;;;;;18.10;65.60;;;;;;5085898;28;43257;-80
2022/12/31 23:52:00;;;;;;;;;;;18.10;65.40;;;;;;5094106;27;43354;-76
2022/12/31 23:54:25;;;;;;;;;;;18.20;65.10;;;;;;5089046;27;42842;-76
2022/12/31 23:56:51;;;;;;;;;;;18.20;65.20;;;;;;5085938;28;43526;-76
2022/12/31 23:59:17;;;;;;;;;;;18.10;65.30;;;;;;5085520;28;43053;-76
